Time;durP1;ratioP1;P1;durP2;ratioP2;P2;SDS_P1;SDS_P2;PMS_P1;PMS_P2;Temp;Humidity;BMP_temperature;BMP_pressure;BME280_temperature;BME280_humidity;BME280_pressure;Samples;Min_cycle;Max_cycle;Signal;HPM_P1;HPM_P2
2022/12/13 00:00:18;;;;;;;6.13;3.10;;;;;;;15.91;40.89;95946.56;5096437;28;20020;-33
2022/12/13 00:02:45;;;;;;;3.58;2.85;;;;;;;15.92;40.83;95946.09;5096470;28;20048;-33
2022/12/13 00:05:11;;;;;;;3.75;2.95;;;;;;;15.97;41.09;95937.19;5096821;28;20486;-33
2022/12/13 00:07:37;;;;;;;4.72;2.70;;;;;;;15.92;41.01;95937.13;5096557;28;20111;-33
2022/12/13 00:10:04;;;;;;;5.90;2.80;;;;;;;15.96;41.19;95932.97;5095312;28;20111;-33
2022/12/13 00:12:30;;;;;;;6.22;3.03;;;;;;;15.97;41.40;95926.25;5096571;28;20028;-33
2022/12/13 00:14:55;;;;;;;5.10;2.97;;;;;;;15.96;41.28;95911.06;5096569;28;20052;-32
2022/12/13 00:17:21;;;;;;;5.03;2.78;;;;;;;15.89;41.58;95911.47;5096447;28;20503;-33
2022/12/13 00:19:47;;;;;;;4.75;2.80;;;;;;;15.94;41.38;95910.81;5096461;28;20111;-33
2022/12/13 00:22:13;;;;;;;4.85;3.38;;;;;;;15.91;41.53;95892.63;5096343;28;20031;-33
2022/12/13 00:24:38;;;;;;;5.00;3.10;;;;;;;15.91;41.61;95886.41;5096515;28;20036;-33
2022/12/13 00:27:04;;;;;;;7.93;2.92;;;;;;;15.94;41.58;95880.75;5096152;28;20020;-33
2022/12/13 00:29:30;;;;;;;5.78;3.53;;;;;;;15.95;41.57;95884.97;5096091;28;20112;-33
2022/12/13 00:31:55;;;;;;;4.60;2.80;;;;;;;15.95;41.68;95876.75;5096034;28;20031;-35
2022/12/13 00:34:21;;;;;;;3.72;2.30;;;;;;;15.94;41.72;95869.81;5107165;28;20019;-34
2022/12/13 00:36:47;;;;;;;4.40;2.88;;;;;;;15.94;41.81;95883.47;5095587;28;20028;-33
2022/12/13 00:39:15;;;;;;;4.60;2.70;;;;;;;15.96;41.64;95882.97;5106748;28;20038;-32
2022/12/13 00:41:42;;;;;;;4.10;2.58;;;;;;;15.93;41.91;95881.97;5116419;28;20032;-34
2022/12/13 00:44:10;;;;;;;3.85;2.58;;;;;;;15.94;41.85;95886.22;5116394;28;20069;-33
2022/12/13 00:46:36;;;;;;;4.78;2.70;;;;;;;15.95;41.77;95876.75;5116381;28;20387;-33
2022/12/13 00:49:02;;;;;;;4.03;2.50;;;;;;;15.89;42.04;95867.72;5115818;28;20411;-34
2022/12/13 00:51:29;;;;;;;5.28;2.78;;;;;;;15.93;42.02;95871.03;5116203;28;20144;-33
2022/12/13 00:53:55;;;;;;;4.78;2.92;;;;;;;15.90;42.16;95873.94;5115857;27;20027;-34
2022/12/13 00:56:24;;;;;;;4.95;2.80;;;;;;;15.89;42.07;95881.41;5116081;28;20023;-33
2022/12/13 00:58:50;;;;;;;4.05;2.50;;;;;;;15.89;42.30;95886.88;5116090;28;20027;-33
2022/12/13 01:01:19;;;;;;;5.13;2.95;;;;;;;15.91;42.32;95876.22;5116532;28;20020;-34
2022/12/13 01:03:45;;;;;;;4.90;2.67;;;;;;;15.90;42.42;95885.66;5115693;28;20048;-34
2022/12/13 01:06:19;;;;;;;4.20;2.55;;;;;;;15.76;42.59;95889.16;5115813;28;20115;-33
2022/12/13 01:08:45;;;;;;;4.80;2.63;;;;;;;15.75;42.60;95893.09;5116080;27;20015;-34
2022/12/13 01:11:12;;;;;;;5.35;2.67;;;;;;;15.81;42.67;95891.22;5115657;28;20028;-34
2022/12/13 01:13:38;;;;;;;3.58;2.58;;;;;;;15.88;42.71;95884.59;5115588;28;20058;-34
2022/12/13 01:16:07;;;;;;;5.03;2.40;;;;;;;15.84;42.74;95871.13;5115830;28;20023;-33
2022/12/13 01:18:32;;;;;;;3.83;2.38;;;;;;;15.89;42.62;95862.25;5114347;28;20023;-33
2022/12/13 01:21:03;;;;;;;4.10;2.53;;;;;;;15.88;42.88;95865.47;5115653;28;20027;-34
2022/12/13 01:23:29;;;;;;;7.15;3.28;;;;;;;15.92;42.57;95861.31;5114618;28;20496;-34
2022/12/13 01:25:55;;;;;;;4.07;2.63;;;;;;;15.87;42.87;95853.78;5094050;28;20032;-34
2022/12/13 01:28:21;;;;;;;4.00;2.50;;;;;;;15.82;42.98;95849.72;5094023;28;20028;-33
2022/12/13 01:30:58;;;;;;;3.92;2.50;;;;;;;15.80;43.12;95859.66;5094954;28;20114;-34
2022/12/13 01:33:25;;;;;;;3.83;2.42;;;;;;;15.77;43.14;95850.41;5094320;28;20107;-33
2022/12/13 01:35:50;;;;;;;4.40;2.40;;;;;;;15.86;42.96;95859.72;5094872;28;20028;-33
2022/12/13 01:38:17;;;;;;;4.25;2.55;;;;;;;15.89;43.04;95854.06;5095404;28;20448;-34
2022/12/13 01:40:49;;;;;;;4.88;2.25;;;;;;;15.84;42.99;95862.16;5094875;28;20055;-33
2022/12/13 01:43:15;;;;;;;3.88;2.63;;;;;;;15.80;43.27;95865.09;5095042;28;20076;-33
2022/12/13 01:45:42;;;;;;;3.65;2.63;;;;;;;15.90;42.97;95852.06;5094384;28;20084;-33
2022/12/13 01:48:16;;;;;;;3.53;2.45;;;;;;;15.86;42.95;95841.31;5096586;28;20020;-33
2022/12/13 01:50:46;;;;;;;4.50;2.47;;;;;;;15.76;43.27;95826.25;5094810;28;20368;-34
2022/12/13 01:53:16;;;;;;;3.75;2.42;;;;;;;15.87;43.11;95820.97;5094600;28;20039;-33
2022/12/13 01:55:45;;;;;;;3.38;2.50;;;;;;;15.83;43.54;95814.94;5094578;28;20588;-34
2022/12/13 01:58:14;;;;;;;3.80;2.40;;;;;;;15.84;43.07;95816.44;5094716;28;20032;-34
2022/12/13 02:00:40;;;;;;;3.70;2.33;;;;;;;15.86;43.26;95824.91;5093095;28;20027;-35
2022/12/13 02:03:06;;;;;;;3.42;2.33;;;;;;;15.77;43.32;95833.25;5094159;28;20048;-33
2022/12/13 02:05:50;;;;;;;3.85;2.38;;;;;;;15.79;43.22;95822.59;5098158;28;20024;-35
2022/12/13 02:08:16;;;;;;;3.85;2.50;;;;;;;15.75;43.40;95814.56;5114833;28;20034;-33
2022/12/13 02:10:42;;;;;;;4.05;2.28;;;;;;;15.70;43.49;95817.25;5114286;27;20020;-33
2022/12/13 02:13:08;;;;;;;4.97;2.40;;;;;;;15.82;43.35;95821.66;5114720;28;20066;-33
2022/12/13 02:16:04;;;;;;;4.28;2.60;;;;;;;15.72;43.55;95803.81;5114861;28;20039;-33
2022/12/13 02:18:42;;;;;;;3.67;2.13;;;;;;;15.69;43.70;95816.50;5107349;28;20032;-33
2022/12/13 02:21:23;;;;;;;5.55;2.60;;;;;;;15.75;43.65;95806.38;5114409;28;20091;-33
2022/12/13 02:24:06;;;;;;;3.65;2.25;;;;;;;15.75;43.67;95800.16;5114396;28;20026;-33
2022/12/13 02:26:51;;;;;;;5.55;2.60;;;;;;;15.71;43.82;95796.84;5114346;28;20023;-33
2022/12/13 02:29:35;;;;;;;4.57;2.88;;;;;;;15.63;43.84;95785.56;5114281;28;20463;-33
2022/12/13 02:32:08;;;;;;;4.32;2.38;;;;;;;15.60;44.22;95783.03;5114255;28;20371;-35
2022/12/13 02:35:02;;;;;;;4.05;2.25;;;;;;;15.61;44.32;95777.09;5114098;28;20489;-34
2022/12/13 02:37:41;;;;;;;3.22;2.10;;;;;;;15.65;43.88;95771.44;5104838;28;20058;-33
2022/12/13 02:40:18;;;;;;;3.10;2.08;;;;;;;15.60;43.90;95756.44;5113872;28;20027;-33
2022/12/13 02:43:06;;;;;;;4.38;2.50;;;;;;;15.71;43.82;95764.81;5113994;28;20378;-33
2022/12/13 02:45:41;;;;;;;3.53;2.65;;;;;;;15.64;43.81;95780.84;5114048;28;20107;-34
2022/12/13 02:48:10;;;;;;;3.53;2.58;;;;;;;15.62;44.07;95783.31;5114230;28;20081;-33
2022/12/13 02:50:36;;;;;;;3.67;2.28;;;;;;;15.68;43.90;95784.91;5113671;28;20031;-33
2022/12/13 02:53:04;;;;;;;3.70;2.78;;;;;;;15.69;43.90;95772.75;5112078;28;20035;-33
2022/12/13 02:55:34;;;;;;;3.53;2.45;;;;;;;15.67;44.01;95771.72;5114146;28;20031;-33
2022/12/13 02:57:59;;;;;;;4.55;2.67;;;;;;;15.70;43.85;95776.97;5113673;28;20023;-34
2022/12/13 03:00:37;;;;;;;3.33;2.38;;;;;;;15.61;43.96;95768.13;5113816;28;20019;-34
2022/12/13 03:03:23;;;;;;;5.07;2.97;;;;;;;15.58;44.28;95760.91;5113795;28;20047;-33
2022/12/13 03:09:16;;;;;;;4.97;2.65;;;;;;;15.63;43.90;95754.75;5114013;28;20066;-33
2022/12/13 03:15:12;;;;;;;4.45;2.92;;;;;;;15.57;44.26;95743.00;5113689;28;20030;-33
2022/12/13 03:17:49;;;;;;;4.53;2.70;;;;;;;15.59;44.05;95735.06;5102229;28;20088;-33
2022/12/13 03:20:17;;;;;;;3.67;2.40;;;;;;;15.59;44.29;95718.66;5114025;28;20093;-33
2022/12/13 03:22:43;;;;;;;4.25;2.50;;;;;;;15.46;44.45;95706.03;5113944;28;20503;-33
2022/12/13 03:25:08;;;;;;;3.17;2.53;;;;;;;15.53;44.29;95721.31;5113626;28;20030;-33
2022/12/13 03:27:34;;;;;;;2.75;2.05;;;;;;;15.52;44.28;95717.06;5113740;28;20103;-33
2022/12/13 03:29:59;;;;;;;4.03;2.50;;;;;;;15.53;44.58;95718.56;5113644;28;20049;-34
2022/12/13 03:32:24;;;;;;;3.85;2.40;;;;;;;15.56;44.29;95717.66;5113632;28;20023;-33
2022/12/13 03:34:50;;;;;;;5.13;2.40;;;;;;;15.55;44.54;95723.59;5113711;28;20024;-33
2022/12/13 03:37:16;;;;;;;3.72;2.33;;;;;;;15.56;44.31;95720.38;5113527;28;20111;-35
2022/12/13 03:39:41;;;;;;;3.08;1.90;;;;;;;15.59;44.24;95721.38;5113656;28;20027;-33
2022/12/13 03:42:07;;;;;;;3.42;2.20;;;;;;;15.59;44.34;95726.84;5110190;28;20015;-34
2022/12/13 03:44:32;;;;;;;3.35;2.00;;;;;;;15.61;44.27;95727.88;5113424;28;20133;-34
2022/12/13 03:46:57;;;;;;;2.67;2.20;;;;;;;15.56;44.43;95727.84;5113458;28;20016;-33
2022/12/13 03:49:23;;;;;;;4.68;2.10;;;;;;;15.53;44.41;95731.47;5113642;28;20020;-34
2022/12/13 03:51:48;;;;;;;3.33;2.15;;;;;;;15.54;44.30;95732.97;5113267;28;20072;-33
2022/12/13 03:54:14;;;;;;;2.67;2.00;;;;;;;15.58;44.38;95714.44;5113562;28;20020;-33
2022/12/13 03:56:39;;;;;;;2.22;1.98;;;;;;;15.52;44.48;95697.19;5113602;28;20066;-33
2022/12/13 03:59:05;;;;;;;2.83;2.38;;;;;;;15.50;44.49;95694.16;5113248;28;20023;-34
2022/12/13 04:01:30;;;;;;;3.13;2.38;;;;;;;15.56;44.55;95697.75;5113658;28;20458;-33
2022/12/13 04:03:56;;;;;;;3.20;2.10;;;;;;;15.55;44.55;95682.59;5113133;28;20039;-33
2022/12/13 04:06:21;;;;;;;4.20;2.30;;;;;;;15.58;44.43;95689.84;5113451;28;20016;-33
2022/12/13 04:08:46;;;;;;;3.95;2.15;;;;;;;15.55;44.44;95688.81;5113320;28;20034;-33
2022/12/13 04:13:56;;;;;;;3.38;2.08;;;;;;;15.56;44.46;95664.97;5117226;28;20477;-33
2022/12/13 04:16:22;;;;;;;4.25;1.92;;;;;;;15.57;44.43;95666.47;5117099;28;20103;-33
2022/12/13 04:18:48;;;;;;;3.08;1.90;;;;;;;15.56;44.52;95660.25;5116795;28;20091;-33
2022/12/13 04:21:14;;;;;;;3.35;2.10;;;;;;;15.53;44.48;95658.44;5117031;28;20024;-33
2022/12/13 04:23:39;;;;;;;3.00;2.20;;;;;;;15.48;44.59;95650.16;5116931;28;20027;-33
2022/12/13 04:26:05;;;;;;;2.58;1.70;;;;;;;15.54;44.58;95659.19;5116605;27;20026;-33
2022/12/13 04:28:30;;;;;;;2.63;2.13;;;;;;;15.55;44.47;95658.00;5116586;28;20096;-34
2022/12/13 04:30:56;;;;;;;3.00;2.00;;;;;;;15.49;44.50;95655.16;5116495;27;20024;-34
2022/12/13 04:33:24;;;;;;;2.70;1.90;;;;;;;15.49;44.70;95673.53;5116563;28;20031;-33
2022/12/13 04:35:50;;;;;;;2.22;1.80;;;;;;;15.51;44.60;95690.19;5116569;28;20088;-33
2022/12/13 04:38:16;;;;;;;2.08;1.67;;;;;;;15.47;44.48;95684.94;5116631;27;20494;-34
2022/12/13 04:40:41;;;;;;;3.72;1.90;;;;;;;15.53;44.42;95687.75;5115076;28;20035;-34
2022/12/13 04:43:07;;;;;;;4.35;1.92;;;;;;;15.49;44.68;95689.91;5116534;28;20023;-35
2022/12/13 04:45:32;;;;;;;4.03;2.10;;;;;;;15.48;44.60;95685.69;5116418;28;20039;-33
2022/12/13 04:47:58;;;;;;;2.50;1.80;;;;;;;15.42;44.63;95685.63;5116320;28;20024;-34
2022/12/13 04:50:23;;;;;;;2.45;1.65;;;;;;;15.56;44.39;95678.63;5116349;28;20027;-33
2022/12/13 04:52:49;;;;;;;2.22;1.50;;;;;;;15.53;44.54;95661.19;5116355;28;20344;-33
2022/12/13 04:55:14;;;;;;;2.90;1.95;;;;;;;15.53;44.31;95657.69;5115479;28;20532;-33
2022/12/13 04:57:40;;;;;;;2.92;1.90;;;;;;;15.48;44.54;95637.25;5116165;28;20031;-33
2022/12/13 05:00:08;;;;;;;1.83;1.58;;;;;;;15.41;44.77;95634.94;5116096;28;20027;-33
2022/12/13 05:02:34;;;;;;;3.55;1.70;;;;;;;15.54;44.50;95640.06;5115765;27;20047;-33
2022/12/13 05:05:01;;;;;;;2.33;1.67;;;;;;;15.46;44.65;95628.78;5115846;28;20047;-33
2022/12/13 05:07:26;;;;;;;1.73;1.45;;;;;;;15.49;44.76;95618.88;5116041;28;20099;-33
2022/12/13 05:09:52;;;;;;;2.38;1.65;;;;;;;15.52;44.63;95610.47;5115995;28;20023;-35
2022/12/13 05:12:17;;;;;;;3.08;1.50;;;;;;;15.43;44.65;95611.38;5115821;28;20061;-34
2022/12/13 05:14:43;;;;;;;2.35;1.90;;;;;;;15.46;44.89;95615.88;5115940;28;20026;-33
2022/12/13 05:17:08;;;;;;;2.80;1.60;;;;;;;15.46;44.88;95618.59;5115597;28;20015;-34
2022/12/13 05:19:34;;;;;;;3.00;1.70;;;;;;;15.48;44.73;95611.91;5115870;28;20024;-34
2022/12/13 05:22:00;;;;;;;2.78;1.67;;;;;;;15.49;44.70;95610.69;5115679;27;20099;-33
2022/12/13 05:24:25;;;;;;;2.20;1.63;;;;;;;15.51;44.87;95613.69;5115577;27;20459;-33
2022/12/13 05:26:51;;;;;;;3.20;1.77;;;;;;;15.46;44.71;95604.94;5114251;28;20055;-33
2022/12/13 05:29:16;;;;;;;2.22;1.58;;;;;;;15.42;45.09;95617.31;5115459;28;20046;-33
2022/12/13 05:31:41;;;;;;;2.35;1.40;;;;;;;15.43;44.76;95608.66;5115514;28;20452;-34
2022/12/13 05:34:07;;;;;;;3.03;1.73;;;;;;;15.53;44.69;95608.50;5115273;28;20077;-33
2022/12/13 05:36:32;;;;;;;2.35;1.50;;;;;;;15.42;44.91;95606.38;5115386;28;20015;-33
2022/12/13 05:38:58;;;;;;;1.65;1.40;;;;;;;15.42;44.94;95615.34;5095714;28;20028;-33
2022/12/13 05:41:28;;;;;;;1.80;1.38;;;;;;;15.41;45.01;95611.09;5094849;28;20452;-33
2022/12/13 05:43:53;;;;;;;2.70;1.52;;;;;;;15.40;44.95;95609.59;5095044;28;20145;-33
2022/12/13 05:46:19;;;;;;;2.28;1.50;;;;;;;15.51;44.89;95608.22;5096267;28;20468;-33
2022/12/13 05:48:45;;;;;;;3.00;1.77;;;;;;;15.51;44.68;95611.72;5093553;28;20072;-33
2022/12/13 05:51:10;;;;;;;2.97;1.83;;;;;;;15.46;45.02;95615.88;5094569;28;20030;-33
2022/12/13 05:53:36;;;;;;;1.98;1.60;;;;;;;15.45;44.92;95616.38;5094431;28;20028;-33
2022/12/13 05:56:09;;;;;;;2.92;1.67;;;;;;;15.32;45.13;95619.44;5094652;28;20028;-33
2022/12/13 05:58:37;;;;;;;2.47;1.38;;;;;;;15.42;44.99;95618.06;5094438;28;20103;-35
2022/12/13 06:01:05;;;;;;;3.50;1.70;;;;;;;15.44;44.95;95612.88;5094572;28;20020;-33
2022/12/13 06:03:31;;;;;;;1.98;1.42;;;;;;;15.43;44.99;95605.91;5094250;28;20047;-33
2022/12/13 06:06:00;;;;;;;2.42;1.55;;;;;;;15.44;44.89;95609.41;5094473;28;20404;-33
2022/12/13 06:08:25;;;;;;;2.50;1.50;;;;;;;15.49;44.87;95608.69;5094513;28;20114;-33
2022/12/13 06:10:55;;;;;;;1.85;1.38;;;;;;;15.48;44.83;95600.97;5094088;28;20111;-33
2022/12/13 06:13:21;;;;;;;2.38;1.70;;;;;;;15.48;44.79;95598.25;5094258;28;20514;-34
2022/12/13 06:15:46;;;;;;;2.10;1.40;;;;;;;15.38;45.02;95595.66;5094224;28;20028;-35
2022/12/13 06:18:12;;;;;;;2.63;1.50;;;;;;;15.34;45.27;95589.63;5094199;28;20027;-34
2022/12/13 06:20:40;;;;;;;2.67;1.40;;;;;;;15.43;45.00;95592.25;5094171;28;20031;-34
2022/12/13 06:23:05;;;;;;;1.83;1.30;;;;;;;15.39;45.07;95601.88;5094165;28;20032;-34
2022/12/13 06:25:31;;;;;;;1.67;1.55;;;;;;;15.44;44.90;95603.94;5094017;28;20016;-36
2022/12/13 06:27:56;;;;;;;3.50;1.88;;;;;;;15.39;45.04;95608.09;5094066;28;20020;-35
2022/12/13 06:30:21;;;;;;;2.05;1.40;;;;;;;15.44;45.24;95601.94;5093662;28;21573;-34
2022/12/13 06:32:50;;;;;;;1.80;1.50;;;;;;;15.44;45.01;95582.06;5093684;28;20024;-34
2022/12/13 06:35:15;;;;;;;2.35;1.60;;;;;;;15.40;45.21;95576.81;5093907;28;20476;-34
2022/12/13 06:37:41;;;;;;;2.60;1.90;;;;;;;15.36;45.20;95575.50;5094011;28;20064;-34
2022/12/13 06:40:07;;;;;;;1.98;1.65;;;;;;;15.30;45.57;95567.25;5093721;28;20020;-34
2022/12/13 06:42:33;;;;;;;2.40;1.63;;;;;;;15.33;45.67;95565.53;5093818;28;20066;-33
2022/12/13 06:44:58;;;;;;;1.95;1.63;;;;;;;15.32;45.33;95566.78;5093762;28;20409;-34
2022/12/13 06:47:25;;;;;;;3.53;1.92;;;;;;;15.32;45.46;95570.25;5092271;28;20027;-34
2022/12/13 06:49:50;;;;;;;3.20;1.77;;;;;;;15.31;45.62;95568.00;5093713;28;20107;-34
2022/12/13 06:52:16;;;;;;;4.80;2.25;;;;;;;15.27;45.63;95573.66;5093522;28;20035;-35
2022/12/13 06:54:42;;;;;;;2.47;1.73;;;;;;;15.36;45.49;95576.25;5093931;28;20059;-34
2022/12/13 06:57:09;;;;;;;2.85;2.08;;;;;;;15.32;45.64;95575.72;5098316;28;20020;-35
2022/12/13 06:59:35;;;;;;;3.40;1.80;;;;;;;15.31;45.57;95584.38;5114172;28;20027;-34
2022/12/13 07:02:00;;;;;;;2.65;2.05;;;;;;;15.32;45.66;95581.19;5113686;28;20028;-34
2022/12/13 07:04:25;;;;;;;4.45;1.98;;;;;;;15.33;45.52;95569.00;5113770;28;20023;-34
2022/12/13 07:06:51;;;;;;;2.08;1.70;;;;;;;15.32;45.71;95569.50;5113850;28;20036;-34
2022/12/13 07:09:17;;;;;;;2.60;1.80;;;;;;;15.32;45.62;95570.25;5112770;28;20028;-34
2022/12/13 07:11:42;;;;;;;2.15;1.50;;;;;;;15.18;45.84;95564.84;5114010;28;20023;-35
2022/12/13 07:14:08;;;;;;;3.03;1.63;;;;;;;15.29;45.58;95565.75;5113924;28;20024;-34
2022/12/13 07:16:33;;;;;;;2.70;1.65;;;;;;;15.36;45.51;95570.78;5113642;28;20094;-35
2022/12/13 07:19:00;;;;;;;2.30;1.50;;;;;;;15.35;45.60;95569.28;5113638;28;20019;-34
2022/12/13 07:21:27;;;;;;;2.13;1.52;;;;;;;15.29;45.78;95573.19;5113484;28;20110;-34
2022/12/13 07:23:52;;;;;;;1.65;1.30;;;;;;;15.31;45.51;95571.50;5110110;28;20072;-34
2022/12/13 07:26:18;;;;;;;1.67;1.33;;;;;;;15.37;45.52;95577.00;5111864;28;20023;-35
2022/12/13 07:28:44;;;;;;;2.50;1.42;;;;;;;15.39;45.53;95577.28;5111770;28;20031;-35
2022/12/13 07:31:11;;;;;;;3.47;1.67;;;;;;;15.35;45.53;95563.81;5111685;28;20038;-35
2022/12/13 07:33:38;;;;;;;1.90;1.23;;;;;;;15.30;45.74;95561.78;5111071;28;20070;-34
2022/12/13 07:36:08;;;;;;;2.85;1.27;;;;;;;15.37;45.67;95572.28;5100181;28;20047;-35
2022/12/13 07:38:34;;;;;;;1.48;1.20;;;;;;;15.45;45.50;95567.19;5090529;28;20074;-34
2022/12/13 07:41:00;;;;;;;1.83;1.17;;;;;;;15.34;45.73;95573.25;5090720;28;20024;-35
2022/12/13 07:43:25;;;;;;;2.53;1.42;;;;;;;15.39;45.40;95575.31;5090291;28;20028;-34
2022/12/13 07:45:52;;;;;;;2.35;1.40;;;;;;;15.24;45.87;95579.31;5094289;28;20036;-34
2022/12/13 07:48:18;;;;;;;1.27;1.17;;;;;;;15.27;45.77;95576.38;5095076;28;20032;-34
2022/12/13 07:50:44;;;;;;;3.38;1.20;;;;;;;15.34;45.61;95572.50;5094897;28;20024;-34
2022/12/13 07:53:10;;;;;;;1.52;1.20;;;;;;;15.34;45.57;95569.75;5095099;28;20111;-34
2022/12/13 07:55:36;;;;;;;1.35;1.10;;;;;;;15.38;45.62;95571.06;5094940;28;20452;-35
2022/12/13 07:58:12;;;;;;;1.45;1.20;;;;;;;15.30;45.82;95575.44;5094011;28;20413;-34
2022/12/13 08:00:41;;;;;;;1.88;1.45;;;;;;;15.37;45.66;95566.81;5094325;28;20067;-35
2022/12/13 08:03:07;;;;;;;2.72;1.38;;;;;;;15.38;45.72;95573.78;5094127;28;20488;-34
2022/12/13 08:05:33;;;;;;;3.20;1.80;;;;;;;15.45;45.45;95567.91;5094422;28;20039;-34
2022/12/13 08:07:59;;;;;;;2.17;1.60;;;;;;;15.38;45.72;95564.84;5093194;28;20034;-35
2022/12/13 08:10:25;;;;;;;1.73;1.20;;;;;;;15.36;45.67;95562.59;5094061;28;20384;-34
2022/12/13 08:12:50;;;;;;;2.38;1.60;;;;;;;15.41;45.58;95572.84;5113331;28;20027;-36
2022/12/13 08:15:16;;;;;;;3.53;1.70;;;;;;;15.35;45.90;95574.00;5114184;28;20084;-35
2022/12/13 08:17:42;;;;;;;1.75;1.40;;;;;;;15.42;45.64;95574.34;5096247;28;20028;-34
2022/12/13 08:20:08;;;;;;;2.85;1.85;;;;;;;15.42;45.76;95577.09;5096286;28;20049;-34
2022/12/13 08:22:34;;;;;;;2.17;1.58;;;;;;;15.43;45.97;95567.66;5095725;28;20016;-36
2022/12/13 08:24:59;;;;;;;2.30;1.52;;;;;;;15.39;45.66;95566.34;5095538;28;20431;-35
2022/12/13 08:27:26;;;;;;;2.20;1.65;;;;;;;15.33;45.81;95571.00;5096026;28;20020;-34
2022/12/13 08:29:52;;;;;;;2.50;1.70;;;;;;;15.39;45.76;95575.31;5096062;28;20032;-35
2022/12/13 08:32:17;;;;;;;1.90;1.60;;;;;;;15.32;45.90;95570.25;5095748;28;20027;-35
2022/12/13 08:34:44;;;;;;;2.60;1.77;;;;;;;14.56;48.03;95577.63;5102513;28;20463;-34
2022/12/13 08:37:09;;;;;;;2.63;1.85;;;;;;;13.97;49.02;95580.31;5094808;28;20041;-35
2022/12/13 08:39:37;;;;;;;4.35;1.67;;;;;;;14.51;47.94;95593.91;5095360;28;20020;-35
2022/12/13 08:42:04;;;;;;;2.92;1.92;;;;;;;14.79;47.07;95589.63;5095475;28;20443;-35
2022/12/13 08:44:29;;;;;;;2.33;1.45;;;;;;;15.04;46.72;95599.16;5094549;28;20024;-35
2022/12/13 08:46:55;;;;;;;3.63;1.60;;;;;;;15.12;46.53;95608.47;5095372;28;20035;-37
2022/12/13 08:49:20;;;;;;;2.83;1.60;;;;;;;15.14;46.46;95605.25;5095630;28;20482;-35
2022/12/13 08:51:46;;;;;;;4.10;1.70;;;;;;;15.23;46.36;95610.59;5094443;28;20118;-35
2022/12/13 08:54:11;;;;;;;2.53;1.70;;;;;;;15.23;46.24;95605.13;5095147;28;20016;-35
2022/12/13 08:56:37;;;;;;;2.22;1.50;;;;;;;15.21;46.23;95613.03;5110318;28;20030;-35
2022/12/13 08:59:02;;;;;;;3.53;1.50;;;;;;;15.26;46.08;95621.31;5115689;28;20059;-35
2022/12/13 09:01:30;;;;;;;2.05;1.50;;;;;;;15.21;46.49;95630.19;5115802;28;20039;-37
2022/12/13 09:03:56;;;;;;;3.33;1.70;;;;;;;15.25;46.44;95635.44;5115978;28;20105;-35
2022/12/13 09:06:21;;;;;;;2.58;1.90;;;;;;;15.28;46.39;95650.91;5116023;28;20051;-36
2022/12/13 09:08:47;;;;;;;2.42;1.80;;;;;;;15.24;46.44;95648.34;5115929;28;20356;-35
2022/12/13 09:11:12;;;;;;;2.38;1.73;;;;;;;15.30;46.23;95656.66;5115624;28;20032;-35
2022/12/13 09:13:39;;;;;;;2.70;1.40;;;;;;;15.30;46.40;95649.19;5115598;28;20475;-36
2022/12/13 09:16:11;;;;;;;2.42;1.88;;;;;;;15.32;46.22;95652.22;5116014;28;20020;-36
2022/12/13 09:18:37;;;;;;;2.20;1.60;;;;;;;15.31;46.56;95652.69;5115845;28;20080;-36
2022/12/13 09:21:10;;;;;;;2.25;1.30;;;;;;;15.30;46.40;95648.44;5115672;28;20023;-35
2022/12/13 09:23:36;;;;;;;3.28;1.70;;;;;;;15.26;46.43;95645.91;5115753;28;20027;-35
2022/12/13 09:26:03;;;;;;;2.58;1.48;;;;;;;15.23;46.69;95652.31;5115723;28;20027;-35
2022/12/13 09:28:29;;;;;;;2.83;1.63;;;;;;;15.28;46.54;95650.91;5115447;28;20098;-35
2022/12/13 09:30:55;;;;;;;2.45;1.60;;;;;;;15.32;46.57;95649.47;5115352;28;20547;-36
2022/12/13 09:33:21;;;;;;;2.53;1.58;;;;;;;15.22;47.00;95663.72;5115401;28;20030;-35
2022/12/13 09:35:46;;;;;;;2.03;1.63;;;;;;;15.30;46.52;95664.84;5115506;28;20388;-37
2022/12/13 09:38:12;;;;;;;2.35;1.50;;;;;;;15.24;46.76;95655.78;5114141;28;20494;-35
2022/12/13 09:40:39;;;;;;;2.88;1.73;;;;;;;15.25;46.65;95655.31;5115262;28;20055;-36
2022/12/13 09:43:06;;;;;;;2.45;1.50;;;;;;;15.26;46.68;95645.91;5115214;28;20026;-35
2022/12/13 09:45:33;;;;;;;2.10;1.77;;;;;;;15.24;46.83;95642.91;5115106;28;20098;-35
2022/12/13 09:48:00;;;;;;;3.40;1.60;;;;;;;15.21;46.80;95641.09;5112296;28;20356;-36
2022/12/13 09:50:32;;;;;;;1.85;1.40;;;;;;;15.30;46.83;95659.38;5115159;28;20428;-35
2022/12/13 09:53:03;;;;;;;2.33;1.52;;;;;;;15.28;46.64;95643.47;5115290;28;20020;-35
2022/12/13 09:55:43;;;;;;;2.28;1.45;;;;;;;15.22;47.03;95645.34;5115087;28;20459;-36
2022/12/13 09:58:30;;;;;;;1.45;1.20;;;;;;;15.22;47.15;95648.06;5114961;28;20062;-35
2022/12/13 10:00:57;;;;;;;1.98;1.23;;;;;;;15.30;46.86;95641.00;5113787;28;20443;-35
2022/12/13 10:03:25;;;;;;;1.98;1.58;;;;;;;15.14;47.60;95641.50;5114678;28;20050;-35
2022/12/13 10:06:00;;;;;;;1.88;1.60;;;;;;;15.30;46.90;95648.44;5115098;28;20042;-35
2022/12/13 10:08:39;;;;;;;2.33;1.35;;;;;;;15.30;47.02;95653.91;5112793;28;20019;-35
2022/12/13 10:11:05;;;;;;;1.80;1.33;;;;;;;15.19;47.38;95638.13;5114758;28;20098;-35
2022/12/13 10:13:52;;;;;;;1.38;1.27;;;;;;;15.26;47.18;95628.75;5114698;28;20114;-35
2022/12/13 10:16:32;;;;;;;2.10;1.40;;;;;;;15.30;47.25;95626.59;5112618;28;20090;-35
2022/12/13 10:18:58;;;;;;;1.95;1.50;;;;;;;15.25;47.35;95619.81;5112400;28;20019;-35
2022/12/13 10:21:39;;;;;;;1.55;1.13;;;;;;;15.27;47.15;95631.03;5114453;28;20016;-35
2022/12/13 10:24:19;;;;;;;1.30;1.13;;;;;;;15.28;47.25;95631.78;5114311;28;20102;-35
2022/12/13 10:26:45;;;;;;;1.92;1.30;;;;;;;15.30;47.41;95621.88;5114442;28;20027;-36
2022/12/13 10:29:11;;;;;;;1.95;1.17;;;;;;;15.26;47.33;95615.84;5114384;28;20411;-36
2022/12/13 10:31:49;;;;;;;1.45;1.10;;;;;;;15.28;47.25;95613.41;5114279;28;20420;-36
2022/12/13 10:34:27;;;;;;;2.28;1.20;;;;;;;15.26;47.55;95610.41;5114223;27;20439;-35
2022/12/13 10:36:53;;;;;;;2.05;1.17;;;;;;;15.24;47.47;95615.56;5112797;28;20020;-35
2022/12/13 10:39:35;;;;;;;1.27;1.00;;;;;;;15.26;47.45;95615.84;5113027;28;20426;-35
2022/12/13 10:42:04;;;;;;;1.77;1.00;;;;;;;15.21;47.54;95630.19;5114401;28;20107;-36
2022/12/13 10:44:30;;;;;;;1.92;1.08;;;;;;;15.26;47.50;95626.78;5114274;28;20027;-35
2022/12/13 10:47:03;;;;;;;1.55;1.00;;;;;;;15.30;47.42;95624.63;5114261;28;20478;-35
2022/12/13 10:49:36;;;;;;;;;;;;;;;15.28;47.58;95626.31;5114634;28;20020;-36
2022/12/13 10:52:02;;;;;;;2.15;1.20;;;;;;;15.30;47.42;95615.66;5113953;28;20363;-35
2022/12/13 10:54:30;;;;;;;1.38;1.20;;;;;;;15.30;47.54;95621.88;5114033;28;20061;-35
2022/12/13 10:56:59;;;;;;;2.05;1.42;;;;;;;15.30;47.34;95626.59;5113613;28;20028;-35
2022/12/13 10:59:36;;;;;;;2.00;1.40;;;;;;;15.28;47.78;95638.00;5113832;28;20058;-37
2022/12/13 11:02:27;;;;;;;2.13;1.33;;;;;;;15.29;47.55;95649.66;5112042;28;20019;-36
2022/12/13 11:04:53;;;;;;;1.60;1.20;;;;;;;15.22;47.67;95648.06;5113903;28;20023;-34
2022/12/13 11:07:32;;;;;;;1.50;1.20;;;;;;;15.20;47.72;95636.91;5113959;28;20552;-35
2022/12/13 11:10:16;;;;;;;1.63;1.20;;;;;;;15.27;47.71;95633.00;5112774;28;20080;-35
2022/12/13 11:12:41;;;;;;;2.15;1.40;;;;;;;15.21;47.85;95638.38;5113851;28;20028;-35
2022/12/13 11:15:18;;;;;;;3.28;1.40;;;;;;;15.27;47.71;95639.22;5113838;28;20371;-36
2022/12/13 11:17:50;;;;;;;1.50;1.23;;;;;;;15.23;47.94;95637.91;5112915;28;20118;-34
2022/12/13 11:20:25;;;;;;;2.47;1.20;;;;;;;15.23;47.87;95649.59;5116253;28;20050;-33
2022/12/13 11:23:02;;;;;;;1.33;1.10;;;;;;;15.24;47.64;95658.53;5117957;28;20085;-35
2022/12/13 11:25:42;;;;;;;1.90;1.33;;;;;;;15.27;47.68;95671.25;5117899;28;20416;-34
2022/12/13 11:28:29;;;;;;;3.22;1.48;;;;;;;15.26;47.68;95669.75;5117901;28;20456;-34
2022/12/13 11:31:07;;;;;;;1.27;1.17;;;;;;;15.25;47.84;95663.53;5117894;28;20032;-34
2022/12/13 11:34:12;;;;;;;1.80;1.45;;;;;;;15.26;47.70;95665.03;5117918;28;20027;-34
2022/12/13 11:36:56;;;;;;;2.17;1.50;;;;;;;15.28;47.84;95661.81;5051065;28;20039;-34
2022/12/13 11:39:41;;;;;;;1.70;1.50;;;;;;;15.29;47.86;95663.34;5117822;28;20479;-34
2022/12/13 11:42:25;;;;;;;1.30;1.20;;;;;;;15.29;47.78;95652.41;5117651;27;20494;-34
2022/12/13 11:45:06;;;;;;;2.33;1.45;;;;;;;15.24;47.95;95656.56;5117764;28;20050;-34
2022/12/13 11:47:48;;;;;;;1.70;1.60;;;;;;;15.30;47.97;95656.66;5107805;28;20024;-35
2022/12/13 11:50:30;;;;;;;3.47;1.60;;;;;;;15.30;47.90;95641.00;5096940;28;20043;-36